Accueil
METAR-TAF:

METAR-TAF

Aéroports :

Aéroport de Figari Sud Corse

Figari, France

latitude: 41-30N, longitude: 009-06E, altitude: 26 m

Observation

Le bulletin a été fait il y a 31 minutes, à 03:00 UTC
Vent 14 kt de est/nord-est
Température 15°C
Humidité 51%
Pression 1015 hPa
Visibilité 10 km ou plus
Nuages fragmentés à une hauteur de 6600 ft
Ciel couvert à une hauteur de 7800 ft

METAR: LFKF 220300Z AUTO 06014KT 9999 BKN066 OVC078 15/05 Q1015 BECMG 06015G30KT

Heure: 05:31 (03:31 UTC)

Prévision

Le bulletin a été fait il y a 1 heure et 31 minutes, à 02:00 UTC
Prévision valable du 22 à 03 UTC au 23 à 03 UTC
Vent 15 kt de est/nord-est avec des rafales jusqu'à 30 kt
Visibilité 10 km ou plus
Nuages épars à une hauteur de 5000 ft
Evoluant progressivement
du 22 à 12 UTC au 22 à 14 UTC
Vent 5 kt de direction variable

TAF: LFKF 220200Z 2203/2303 06015G30KT 9999 SCT050 BECMG 2212/2214 VRB05KT

Observations et prévisions météorologiques de plus de 4000 aéroports (messages METAR et TAF).

Les stations disponibles sont représentées par des disques jaunes et rouges sur la carte.

Passer la souris dessus pour voir le nom de la station.

Cliquer dessus pour voir les observations et prévisions météorologiques.

Pour changer de carte: cliquez sur les boutons verts avec une croix noire pour zoomer, sur le bouton vert avec un tiret pour effectuer un zoom arrière, ou sur les flèches vertes pour les cartes adjacentes.


METAR-TAF: